createdAt,value
2022-10-15T06:15:06.299Z,72.47
2022-10-15T06:17:33.236Z,75.10
2022-10-15T06:20:00.108Z,71.07
2022-10-15T06:22:27.084Z,69.53
2022-10-15T06:24:54.054Z,70.93
2022-10-15T06:27:21.535Z,71.00
2022-10-15T06:29:48.592Z,72.70
2022-10-15T06:32:15.531Z,74.67
2022-10-15T06:34:43.755Z,68.57
2022-10-15T06:37:10.750Z,70.00
2022-10-15T06:39:37.667Z,68.47
2022-10-15T06:42:04.519Z,67.73
2022-10-15T06:44:40.391Z,67.70
2022-10-15T06:47:07.691Z,67.90
2022-10-15T06:49:34.616Z,71.07
2022-10-15T06:52:03.815Z,70.97
2022-10-15T06:54:30.997Z,65.80
2022-10-15T06:56:57.991Z,69.97
2022-10-15T06:59:24.861Z,67.77
2022-10-15T07:01:53.945Z,62.17
2022-10-15T07:04:22.863Z,64.80
2022-10-15T07:06:49.750Z,63.53
2022-10-15T07:09:20.628Z,66.27
2022-10-15T07:11:47.533Z,65.53
2022-10-15T07:14:15.934Z,62.80
2022-10-15T07:16:42.780Z,60.30
2022-10-15T07:19:09.913Z,57.65
2022-10-15T07:21:36.810Z,60.95
2022-10-15T07:24:03.838Z,59.28
2022-10-15T07:26:31.505Z,62.72
2022-10-15T07:29:02.485Z,57.38
2022-10-15T07:31:29.434Z,59.42
2022-10-15T07:33:56.496Z,57.65
2022-10-15T07:36:23.373Z,57.53
2022-10-15T07:38:50.230Z,55.42
2022-10-15T07:41:17.148Z,56.40
2022-10-15T07:43:44.474Z,54.85
2022-10-15T07:46:11.999Z,58.03
2022-10-15T07:48:38.892Z,54.38
2022-10-15T07:51:07.199Z,60.10
2022-10-15T07:53:34.654Z,56.55
2022-10-15T07:56:04.266Z,59.00
2022-10-15T07:58:34.720Z,56.88
2022-10-15T08:01:09.931Z,58.40
2022-10-15T08:03:38.001Z,57.92
2022-10-15T08:06:06.907Z,61.10
2022-10-15T08:08:34.794Z,58.13
2022-10-15T08:11:13.891Z,59.30
2022-10-15T08:13:42.468Z,61.63
2022-10-15T08:16:13.983Z,60.00
2022-10-15T08:18:43.013Z,59.00
2022-10-15T08:21:11.402Z,61.22
2022-10-15T08:23:38.888Z,58.15
2022-10-15T08:26:06.004Z,62.95
2022-10-15T08:28:35.364Z,60.67
2022-10-15T13:24:06.000Z,31.27
2022-10-15T13:26:39.660Z,24.95
2022-10-15T13:29:14.278Z,30.08
2022-10-15T13:31:45.040Z,25.70
2022-10-15T13:34:31.871Z,27.15
2022-10-15T13:37:01.848Z,32.53
2022-10-15T13:39:36.600Z,29.05
2022-10-15T13:42:15.585Z,26.02
2022-10-15T13:44:44.432Z,28.08
2022-10-15T13:47:30.761Z,27.98
2022-10-15T13:50:32.691Z,28.00
2022-10-15T13:53:01.772Z,28.73
2022-10-15T13:55:33.503Z,27.08
2022-10-15T13:58:26.639Z,26.75
2022-10-15T14:01:01.813Z,25.25
2022-10-15T14:03:33.794Z,24.80
2022-10-15T14:06:29.824Z,26.38
2022-10-15T14:09:26.956Z,25.85
2022-10-15T14:11:57.957Z,26.75
2022-10-15T14:14:52.463Z,28.15
2022-10-15T14:17:39.942Z,24.42
2022-10-15T14:20:26.882Z,27.42
2022-10-15T14:22:54.733Z,26.45
2022-10-15T14:25:25.404Z,29.75
2022-10-15T14:27:52.856Z,26.20
2022-10-15T14:30:30.182Z,26.73
2022-10-15T14:32:57.315Z,30.67
2022-10-15T14:35:33.221Z,25.38
2022-10-15T14:38:06.375Z,29.15
2022-10-15T14:40:33.352Z,29.35
2022-10-15T14:43:14.963Z,28.00
2022-10-15T14:45:50.998Z,29.13
2022-10-15T14:48:28.219Z,27.75
2022-10-15T14:51:00.048Z,24.88
2022-10-15T14:53:31.103Z,31.17
2022-10-15T14:56:02.075Z,26.30
2022-10-15T14:58:30.000Z,26.05
2022-10-15T15:01:02.914Z,24.58
2022-10-15T15:03:42.073Z,28.15
2022-10-15T15:06:09.916Z,26.65
2022-10-15T15:08:36.932Z,29.00
2022-10-15T15:11:07.032Z,25.98
2022-10-15T15:13:39.793Z,27.60
2022-10-15T15:16:07.518Z,26.30
2022-10-15T15:18:34.650Z,27.30
2022-10-15T15:21:04.632Z,27.23
2022-10-15T15:23:32.724Z,25.92
2022-10-15T15:25:59.906Z,28.75
2022-10-15T15:28:29.322Z,28.08
2022-10-15T15:31:06.405Z,28.13
2022-10-15T15:33:34.500Z,28.20
2022-10-15T15:36:13.101Z,30.88
2022-10-15T15:38:40.455Z,27.15
2022-10-15T15:41:18.962Z,28.77
2022-10-15T15:43:46.437Z,26.95
2022-10-15T15:46:14.014Z,27.60
2022-10-15T15:48:40.888Z,24.70
2022-10-15T15:51:18.931Z,25.70
2022-10-15T15:53:45.896Z,29.10
2022-10-15T15:56:12.845Z,29.30
2022-10-15T15:58:39.700Z,28.10
2022-10-15T16:01:08.020Z,29.25
2022-10-15T16:03:37.528Z,28.67
2022-10-15T16:06:08.264Z,29.27
2022-10-15T16:08:37.179Z,29.25
2022-10-15T16:11:05.430Z,28.50
2022-10-15T16:13:32.744Z,29.17
2022-10-15T16:15:59.665Z,28.98
2022-10-15T16:18:26.572Z,31.08
2022-10-15T16:20:53.606Z,26.83
2022-10-15T16:23:20.468Z,26.38
2022-10-15T16:25:47.314Z,27.60
2022-10-15T16:28:14.230Z,29.92
2022-10-15T16:30:42.499Z,29.92
2022-10-15T16:33:09.462Z,30.02
2022-10-15T16:35:36.523Z,32.58
2022-10-15T16:38:03.507Z,31.83
2022-10-15T16:40:30.339Z,33.90
2022-10-15T16:42:57.397Z,31.95
2022-10-15T16:45:24.440Z,31.02
2022-10-15T16:47:53.343Z,33.40
2022-10-15T16:50:20.272Z,35.33
2022-10-15T16:52:47.155Z,36.90
2022-10-15T16:55:14.111Z,34.08
2022-10-15T16:57:41.974Z,34.90
2022-10-15T17:00:10.110Z,31.77
2022-10-15T17:02:37.226Z,33.10
2022-10-15T17:05:04.447Z,34.13
2022-10-15T17:07:31.691Z,34.20
2022-10-15T17:09:58.744Z,34.63
2022-10-15T17:12:25.925Z,35.33
2022-10-15T17:14:53.163Z,33.72
2022-10-15T17:17:20.133Z,35.90
2022-10-15T17:19:47.280Z,32.83
2022-10-15T17:22:14.197Z,38.15
2022-10-15T17:24:41.115Z,38.10
2022-10-15T17:27:07.987Z,36.80
2022-10-15T17:29:35.000Z,36.80
2022-10-15T17:32:03.081Z,41.13
2022-10-15T17:34:31.386Z,35.80
2022-10-15T17:36:58.323Z,39.88
2022-10-15T17:39:25.285Z,42.10
2022-10-15T17:41:52.554Z,39.42
2022-10-15T17:44:19.988Z,40.88
2022-10-15T17:49:24.987Z,40.65
2022-10-15T17:51:51.834Z,40.55
2022-10-15T17:54:18.888Z,38.53
2022-10-15T17:56:46.153Z,41.63
2022-10-15T17:59:13.296Z,44.47
2022-10-15T18:01:59.534Z,40.03
2022-10-15T18:04:29.471Z,38.38
2022-10-15T18:06:56.592Z,40.42
2022-10-15T18:09:24.851Z,41.03
2022-10-15T18:11:55.627Z,43.30
2022-10-15T18:14:28.461Z,40.45
2022-10-15T18:16:55.585Z,41.22
2022-10-15T18:19:22.634Z,40.22
2022-10-15T18:21:50.095Z,38.45
2022-10-15T18:24:21.653Z,40.72
2022-10-15T18:26:50.020Z,45.35
2022-10-15T18:29:17.453Z,40.00
2022-10-15T18:31:46.954Z,39.15
2022-10-15T18:34:14.234Z,42.38
2022-10-15T18:36:43.685Z,43.72
2022-10-15T18:39:11.206Z,40.72
2022-10-15T18:41:40.134Z,41.95
2022-10-15T18:44:13.200Z,41.78
2022-10-15T18:46:42.237Z,45.97
2022-10-15T18:49:09.388Z,43.50
2022-10-15T18:51:36.257Z,42.03
2022-10-15T18:54:03.572Z,39.83
2022-10-15T18:56:30.479Z,40.50
2022-10-15T18:58:57.347Z,39.42
2022-10-15T19:01:37.438Z,42.95
2022-10-15T19:04:23.571Z,39.33
2022-10-15T19:06:52.784Z,40.55
2022-10-15T19:09:22.456Z,39.25
2022-10-15T19:11:51.858Z,39.35
2022-10-15T19:14:19.125Z,44.03
2022-10-15T19:16:46.895Z,37.50
2022-10-15T19:19:18.669Z,38.85
2022-10-15T19:21:47.340Z,38.25
2022-10-15T19:24:15.896Z,37.22
2022-10-15T19:26:43.222Z,46.45
2022-10-15T19:29:10.257Z,39.10
2022-10-15T19:31:40.676Z,40.65
2022-10-15T19:34:08.331Z,37.15
2022-10-15T19:36:41.308Z,40.53
2022-10-15T19:39:11.903Z,36.88
2022-10-15T19:41:40.315Z,40.33
2022-10-15T19:44:08.286Z,39.08
2022-10-15T19:46:38.418Z,39.40
2022-10-15T19:49:07.979Z,36.38
2022-10-15T19:51:35.183Z,36.25
2022-10-15T19:54:02.345Z,39.78
2022-10-15T19:56:33.034Z,37.85
2022-10-15T19:59:02.095Z,39.53
2022-10-15T20:01:30.434Z,39.33
2022-10-15T20:04:03.154Z,36.17
2022-10-15T20:06:33.505Z,38.20
2022-10-15T20:09:02.227Z,35.83
2022-10-15T20:11:29.244Z,36.15
2022-10-15T20:13:56.550Z,37.15
2022-10-15T20:16:24.788Z,38.25
2022-10-15T20:18:52.666Z,41.95
2022-10-15T20:21:19.633Z,37.22
2022-10-15T20:23:47.840Z,38.63
2022-10-15T20:26:16.376Z,39.20
2022-10-15T20:28:44.755Z,39.20
2022-10-15T20:31:28.263Z,37.63
2022-10-15T20:33:55.363Z,35.75
2022-10-15T20:36:24.327Z,38.90
2022-10-15T20:38:51.857Z,39.42
2022-10-15T20:41:19.255Z,39.65
2022-10-15T20:43:47.286Z,38.15
2022-10-15T20:46:19.687Z,35.28
2022-10-15T20:48:47.011Z,37.17
2022-10-15T20:51:17.633Z,38.85
2022-10-15T20:53:45.523Z,34.95
2022-10-15T20:56:13.280Z,33.88
2022-10-15T20:58:40.275Z,35.10
2022-10-15T21:01:07.878Z,35.35
2022-10-15T21:03:34.924Z,33.75
2022-10-15T21:06:01.904Z,35.85
2022-10-15T21:08:28.915Z,34.72
2022-10-15T21:11:06.940Z,33.42
2022-10-15T21:13:34.268Z,36.60
2022-10-15T21:16:03.006Z,33.78
2022-10-15T21:18:30.258Z,30.73
2022-10-15T21:21:07.616Z,29.15
2022-10-15T21:23:35.165Z,31.13
2022-10-15T21:26:06.509Z,30.42
2022-10-15T21:28:34.759Z,30.88
2022-10-15T21:31:07.475Z,32.75
2022-10-15T21:33:36.102Z,31.67
2022-10-15T21:36:23.032Z,28.33
2022-10-15T21:38:56.713Z,29.75
2022-10-15T21:41:24.807Z,28.75
2022-10-15T21:43:52.466Z,27.08
2022-10-15T21:46:19.391Z,28.50
2022-10-15T21:48:46.373Z,29.30
2022-10-15T21:51:19.274Z,29.60
2022-10-15T21:53:46.804Z,27.88
2022-10-15T21:56:14.400Z,28.88
2022-10-15T21:58:41.832Z,28.58
2022-10-15T22:01:15.925Z,27.60
2022-10-15T22:03:45.769Z,28.50
2022-10-15T22:06:13.190Z,30.02
2022-10-15T22:08:40.202Z,24.70
2022-10-15T22:11:11.735Z,25.45
2022-10-15T22:13:39.160Z,26.45
2022-10-15T22:16:06.662Z,25.63
2022-10-15T22:18:33.781Z,27.05
2022-10-15T22:21:10.569Z,26.17
2022-10-15T22:23:37.479Z,25.77
2022-10-15T22:26:04.331Z,25.83
2022-10-15T22:28:31.169Z,24.30
2022-10-15T22:31:03.601Z,26.40
2022-10-15T22:33:30.533Z,23.60
2022-10-15T22:36:05.939Z,27.08
2022-10-15T22:38:33.028Z,24.33
2022-10-15T22:41:01.444Z,31.67
2022-10-15T22:43:28.268Z,24.90
2022-10-15T22:45:59.907Z,25.48
2022-10-15T22:48:27.246Z,27.75
2022-10-15T22:50:58.550Z,28.80
2022-10-15T22:53:26.211Z,28.35
2022-10-15T22:55:57.174Z,26.30
2022-10-15T22:58:25.072Z,27.23
2022-10-15T23:00:52.548Z,24.83
2022-10-15T23:03:20.201Z,27.33
2022-10-15T23:05:54.469Z,25.10
2022-10-15T23:08:21.957Z,28.90
2022-10-15T23:10:49.268Z,25.77
2022-10-15T23:13:16.327Z,23.77
2022-10-15T23:15:43.208Z,26.85
2022-10-15T23:18:10.052Z,25.77
2022-10-15T23:20:40.395Z,28.10
